createdAt,value
2022-08-20T00:02:59.039Z,5.43
2022-08-20T00:08:04.065Z,6.10
2022-08-20T00:13:11.312Z,5.78
2022-08-20T00:18:18.493Z,5.57
2022-08-20T00:23:22.604Z,5.80
2022-08-20T00:28:27.563Z,5.25
2022-08-20T00:33:31.442Z,6.13
2022-08-20T00:38:35.683Z,5.57
2022-08-20T00:43:44.617Z,5.93
2022-08-20T00:48:50.722Z,5.63
2022-08-20T00:53:57.520Z,6.18
2022-08-20T00:59:03.043Z,5.65
2022-08-20T01:04:06.888Z,6.25
2022-08-20T01:09:10.952Z,5.60
2022-08-20T01:14:25.114Z,5.47
2022-08-20T01:19:34.249Z,6.35
2022-08-20T01:24:42.048Z,7.00
2022-08-20T01:29:47.957Z,7.18
2022-08-20T01:34:51.591Z,6.03
2022-08-20T01:39:55.229Z,7.95
2022-08-20T01:45:01.716Z,6.50
2022-08-20T01:50:13.537Z,5.57
2022-08-20T01:55:17.118Z,6.72
2022-08-20T02:00:22.807Z,6.97
2022-08-20T02:05:30.690Z,7.10
2022-08-20T02:10:34.427Z,6.88
2022-08-20T02:15:42.867Z,9.70
2022-08-20T02:20:47.520Z,6.85
2022-08-20T02:25:51.469Z,7.53
2022-08-20T02:30:56.966Z,6.35
2022-08-20T02:36:00.325Z,7.35
2022-08-20T02:41:03.997Z,6.90
2022-08-20T02:46:09.201Z,7.30
2022-08-20T02:51:12.507Z,7.60
2022-08-20T02:56:16.152Z,6.47
2022-08-20T03:01:20.994Z,7.72
2022-08-20T03:06:24.581Z,7.68
2022-08-20T03:11:28.068Z,8.55
2022-08-20T03:16:33.728Z,7.88
2022-08-20T03:21:37.234Z,11.90
2022-08-20T03:26:40.651Z,13.38
2022-08-20T03:31:45.549Z,17.17
2022-08-20T03:36:48.976Z,17.23
2022-08-20T03:41:52.315Z,18.15
2022-08-20T03:46:57.025Z,21.13
2022-08-20T03:52:01.361Z,21.58
2022-08-20T03:57:12.803Z,20.92
2022-08-20T04:02:18.188Z,22.08
2022-08-20T04:07:27.014Z,22.60
2022-08-20T04:12:30.317Z,20.60
2022-08-20T04:17:35.006Z,21.80
2022-08-20T04:22:40.662Z,23.00
2022-08-20T04:27:44.800Z,20.83
2022-08-20T04:32:50.019Z,20.20
2022-08-20T04:38:01.339Z,22.05
2022-08-20T04:43:05.950Z,22.98
2022-08-20T04:48:14.987Z,23.08
2022-08-20T04:53:25.285Z,23.83
2022-08-20T04:58:33.722Z,21.88
2022-08-20T05:03:39.995Z,25.00
2022-08-20T05:08:43.506Z,27.00
2022-08-20T05:13:46.868Z,25.38
2022-08-20T05:18:52.453Z,29.85
2022-08-20T05:23:56.297Z,26.25
2022-08-20T05:28:59.681Z,27.98
2022-08-20T05:34:11.098Z,29.33
2022-08-20T05:39:15.641Z,30.10
2022-08-20T05:44:19.993Z,27.75
2022-08-20T05:49:24.690Z,31.58
2022-08-20T05:54:28.098Z,29.17
2022-08-20T05:59:31.525Z,31.65
2022-08-20T06:04:36.241Z,29.05
2022-08-20T06:09:43.520Z,29.88
2022-08-20T06:14:48.373Z,28.60
2022-08-20T06:19:53.218Z,28.88
2022-08-20T06:24:57.162Z,28.83
2022-08-20T06:30:00.867Z,29.40
2022-08-20T06:35:08.606Z,31.23
2022-08-20T06:40:15.921Z,30.00
2022-08-20T06:45:24.434Z,29.52
2022-08-20T06:50:43.136Z,27.13
2022-08-20T06:55:54.049Z,26.30
2022-08-20T07:00:57.444Z,27.58
2022-08-20T07:06:02.203Z,25.45
2022-08-20T07:11:05.668Z,30.45
2022-08-20T07:16:09.209Z,28.95
2022-08-20T07:21:13.914Z,29.60
2022-08-20T07:26:17.882Z,29.38
2022-08-20T07:31:48.190Z,31.17
2022-08-20T07:36:52.954Z,30.50
2022-08-20T07:42:03.996Z,31.67
2022-08-20T07:47:07.723Z,30.35
2022-08-20T07:52:13.257Z,28.67
2022-08-20T07:57:17.418Z,28.33
2022-08-20T08:02:21.062Z,27.40
2022-08-20T08:07:26.962Z,27.17
2022-08-20T08:12:37.689Z,26.35
2022-08-20T08:17:41.350Z,30.58
2022-08-20T08:22:46.075Z,27.05
2022-08-20T08:27:49.694Z,27.30
2022-08-20T08:33:10.843Z,24.67
2022-08-20T08:38:17.252Z,25.75
2022-08-20T08:43:21.559Z,25.75
2022-08-20T08:48:32.285Z,25.60
2022-08-20T08:53:42.171Z,25.23
2022-08-20T08:58:46.046Z,24.70
2022-08-20T09:03:51.948Z,24.02
2022-08-20T09:09:01.071Z,23.38
2022-08-20T09:14:04.551Z,24.05
2022-08-20T09:19:07.963Z,20.95
2022-08-20T09:24:12.671Z,21.45
2022-08-20T09:29:16.112Z,20.35
2022-08-20T09:34:20.284Z,22.77
2022-08-20T09:39:25.360Z,21.00
2022-08-20T09:44:28.721Z,21.25
2022-08-20T09:49:32.258Z,20.10
2022-08-20T09:54:38.402Z,19.92
2022-08-20T09:59:41.891Z,18.67
2022-08-20T10:04:45.743Z,20.95
2022-08-20T10:09:50.790Z,23.20
2022-08-20T10:14:55.709Z,21.02
2022-08-20T10:19:59.200Z,21.25
2022-08-20T10:25:04.319Z,21.80
2022-08-20T10:30:08.825Z,19.67
2022-08-20T10:35:12.174Z,20.38
2022-08-20T10:40:17.376Z,20.38
2022-08-20T10:45:20.945Z,18.40
2022-08-20T10:50:24.660Z,18.85
2022-08-20T10:55:34.879Z,17.92
2022-08-20T11:00:38.368Z,19.33
2022-08-20T11:05:41.772Z,18.83
2022-08-20T11:10:46.495Z,19.17
2022-08-20T11:15:49.851Z,18.13
2022-08-20T11:20:53.348Z,19.67
2022-08-20T11:25:58.450Z,20.33
2022-08-20T11:31:02.614Z,17.55
2022-08-20T11:36:06.409Z,18.80
2022-08-20T11:41:11.424Z,19.58
2022-08-20T11:46:14.780Z,18.50
2022-08-20T11:51:18.146Z,18.17
2022-08-20T11:56:22.937Z,19.42
2022-08-20T12:01:26.501Z,20.40
2022-08-20T12:06:31.242Z,18.75
2022-08-20T12:11:35.964Z,17.20
2022-08-20T12:16:39.912Z,17.95
2022-08-20T12:21:43.272Z,18.20
2022-08-20T12:26:48.235Z,16.95
2022-08-20T12:31:51.832Z,16.83
2022-08-20T12:37:02.740Z,25.60
2022-08-20T12:42:08.631Z,16.98
2022-08-20T12:47:14.450Z,16.20
2022-08-20T12:52:20.714Z,17.08
2022-08-20T12:57:28.784Z,15.57
2022-08-20T13:02:32.267Z,16.52
2022-08-20T13:07:36.441Z,14.93
2022-08-20T13:12:41.219Z,15.18
2022-08-20T13:17:44.851Z,14.50
2022-08-20T13:22:48.474Z,16.02
2022-08-20T13:27:58.175Z,13.55
2022-08-20T13:33:01.742Z,14.07
2022-08-20T13:38:05.173Z,15.13
2022-08-20T13:43:11.935Z,12.70
2022-08-20T13:48:15.566Z,13.15
2022-08-20T13:53:19.255Z,13.45
2022-08-20T13:58:24.737Z,14.18
2022-08-20T14:03:28.211Z,13.05
2022-08-20T14:08:31.695Z,12.77
2022-08-20T14:13:36.446Z,12.15
2022-08-20T14:18:39.821Z,13.20
2022-08-20T14:23:43.923Z,13.45
2022-08-20T14:28:48.596Z,11.68
2022-08-20T14:33:51.882Z,12.95
2022-08-20T14:38:55.492Z,11.93
2022-08-20T14:44:00.563Z,12.45
2022-08-20T14:49:08.733Z,11.52
2022-08-20T14:54:12.132Z,11.48
2022-08-20T14:59:17.106Z,13.23
2022-08-20T15:04:20.754Z,7.88
2022-08-20T15:09:24.146Z,6.72
2022-08-20T15:14:29.221Z,6.28
2022-08-20T15:19:33.627Z,3.10
2022-08-20T15:24:37.024Z,2.55
2022-08-20T15:35:05.226Z,2.60
2022-08-20T15:40:10.672Z,4.22
2022-08-20T15:45:22.251Z,4.03
2022-08-20T16:02:08.675Z,7.05
2022-08-20T16:07:18.320Z,5.97
2022-08-20T16:12:31.900Z,6.38
2022-08-20T16:24:34.841Z,5.40
2022-08-20T16:29:54.543Z,4.40
2022-08-20T16:35:02.023Z,4.47
2022-08-20T16:40:19.978Z,4.32
2022-08-20T16:45:28.399Z,4.90
2022-08-20T16:50:39.345Z,5.53
2022-08-20T16:55:44.748Z,4.90
2022-08-20T17:00:49.180Z,6.07
2022-08-20T17:05:55.878Z,5.78
2022-08-20T17:11:09.869Z,6.97
2022-08-20T17:16:21.132Z,6.97
2022-08-20T17:21:28.614Z,6.07
2022-08-20T17:26:37.621Z,6.25
2022-08-20T17:31:43.939Z,6.10
2022-08-20T17:36:55.082Z,6.68
2022-08-20T17:42:08.147Z,6.43
2022-08-20T17:47:17.335Z,5.18
2022-08-20T17:52:26.231Z,5.20
2022-08-20T17:57:38.395Z,5.18
2022-08-20T18:02:42.897Z,5.03
2022-08-20T18:08:12.666Z,5.18
2022-08-20T18:13:20.865Z,4.00
2022-08-20T18:18:32.149Z,5.45
2022-08-20T18:23:41.353Z,4.90
2022-08-20T18:28:50.399Z,4.40
2022-08-20T18:33:54.344Z,4.45
2022-08-20T18:39:04.650Z,4.53
2022-08-20T18:44:13.607Z,4.15
2022-08-20T18:49:29.435Z,4.88
2022-08-20T18:54:33.681Z,4.13
2022-08-20T18:59:46.253Z,4.82
2022-08-20T19:04:54.002Z,4.15
2022-08-20T19:10:28.131Z,3.30
2022-08-20T19:15:39.174Z,4.00
2022-08-20T19:20:55.549Z,4.65
2022-08-20T19:26:02.850Z,3.63
2022-08-20T19:31:13.713Z,3.67
2022-08-20T19:36:19.392Z,4.13
2022-08-20T19:41:31.014Z,5.40
2022-08-20T19:46:39.248Z,4.90
2022-08-20T19:51:54.501Z,5.03
2022-08-20T19:56:58.959Z,6.20
2022-08-20T20:02:20.480Z,5.80
2022-08-20T20:07:27.761Z,6.10
2022-08-20T20:12:34.588Z,6.65
2022-08-20T20:17:39.392Z,7.82
2022-08-20T20:22:51.544Z,7.65
2022-08-20T20:27:57.642Z,7.57
2022-08-20T20:33:12.087Z,9.82
2022-08-20T20:38:26.363Z,10.02
2022-08-20T20:43:32.951Z,9.75
2022-08-20T20:48:48.334Z,10.07
2022-08-20T20:53:55.106Z,10.18
2022-08-20T20:59:02.563Z,9.82
2022-08-20T21:04:10.368Z,9.88
2022-08-20T21:09:13.790Z,9.35
2022-08-20T21:14:17.784Z,9.52
2022-08-20T21:19:22.765Z,9.38
2022-08-20T21:24:26.398Z,9.35
2022-08-20T21:29:32.878Z,8.10
2022-08-20T21:34:38.212Z,8.27
2022-08-20T21:39:42.140Z,8.02
2022-08-20T21:44:47.925Z,8.77
2022-08-20T21:49:54.760Z,7.85
2022-08-20T21:54:58.405Z,6.43
2022-08-20T22:00:07.066Z,8.00
2022-08-20T22:05:12.401Z,7.88
2022-08-20T22:10:15.782Z,7.45
2022-08-20T22:15:19.296Z,7.65
2022-08-20T22:20:24.278Z,7.10
2022-08-20T22:25:28.181Z,7.50
2022-08-20T22:30:31.981Z,7.65
2022-08-20T22:35:37.257Z,7.68
2022-08-20T22:40:40.920Z,7.72
2022-08-20T22:45:46.692Z,8.48
2022-08-20T22:50:52.239Z,8.27
2022-08-20T22:55:56.082Z,8.85
2022-08-20T23:01:04.885Z,8.93
2022-08-20T23:06:10.785Z,9.77
2022-08-20T23:11:14.218Z,9.05
2022-08-20T23:16:17.626Z,8.85
2022-08-20T23:21:22.669Z,9.55
2022-08-20T23:26:26.157Z,8.82
2022-08-20T23:31:29.708Z,8.98
2022-08-20T23:36:36.129Z,9.18
2022-08-20T23:41:45.411Z,9.20
2022-08-20T23:46:51.897Z,9.25
2022-08-20T23:52:00.730Z,9.48
2022-08-20T23:57:08.401Z,9.82
